createdAt,value
2022-12-31T00:00:00.340Z,63.63
2022-12-31T00:01:00.342Z,61.84
2022-12-31T00:02:00.427Z,55.80
2022-12-31T00:03:00.464Z,65.49
2022-12-31T00:04:00.317Z,67.75
2022-12-31T00:05:00.333Z,55.65
2022-12-31T00:06:00.306Z,54.83
2022-12-31T00:07:00.351Z,62.44
2022-12-31T00:08:00.320Z,58.96
2022-12-31T00:09:00.305Z,60.33
2022-12-31T00:10:00.279Z,59.46
2022-12-31T00:11:00.294Z,53.57
2022-12-31T00:12:00.280Z,53.50
2022-12-31T00:13:00.279Z,53.43
2022-12-31T00:14:00.260Z,63.49
2022-12-31T00:15:00.240Z,56.24
2022-12-31T00:16:00.268Z,55.24
2022-12-31T00:17:00.290Z,56.66
2022-12-31T00:18:00.231Z,66.29
2022-12-31T00:19:00.253Z,57.25
2022-12-31T00:20:00.246Z,56.11
2022-12-31T00:21:00.825Z,57.41
2022-12-31T00:22:00.202Z,55.70
2022-12-31T00:23:00.194Z,58.12
2022-12-31T00:24:00.219Z,60.09
2022-12-31T00:25:00.228Z,63.97
2022-12-31T00:26:00.167Z,54.00
2022-12-31T00:27:00.199Z,61.04
2022-12-31T00:28:00.165Z,58.92
2022-12-31T00:29:00.151Z,56.54
2022-12-31T00:30:04.468Z,55.25
2022-12-31T00:31:01.224Z,61.36
2022-12-31T00:32:00.204Z,56.58
2022-12-31T00:33:00.149Z,66.23
2022-12-31T00:34:00.123Z,61.76
2022-12-31T00:35:00.182Z,57.09
2022-12-31T00:36:00.111Z,55.77
2022-12-31T00:37:00.139Z,53.08
2022-12-31T00:38:00.161Z,54.29
2022-12-31T00:39:00.107Z,55.17
2022-12-31T00:40:00.131Z,59.55
2022-12-31T00:41:00.114Z,59.41
2022-12-31T00:42:00.140Z,63.74
2022-12-31T00:43:00.067Z,60.82
2022-12-31T00:44:00.101Z,56.59
2022-12-31T00:45:00.082Z,63.86
2022-12-31T00:46:00.092Z,60.19
2022-12-31T00:47:00.093Z,55.61
2022-12-31T00:48:00.055Z,58.23
2022-12-31T00:49:00.994Z,55.05
2022-12-31T00:50:00.021Z,55.66
2022-12-31T00:51:00.014Z,57.26
2022-12-31T00:52:00.053Z,58.23
2022-12-31T00:53:00.051Z,55.69
2022-12-31T00:54:00.002Z,55.19
2022-12-31T00:55:00.005Z,55.05
2022-12-31T00:55:59.986Z,63.13
2022-12-31T00:56:59.972Z,55.32
2022-12-31T00:58:00.017Z,70.09
2022-12-31T00:58:59.957Z,60.22
2022-12-31T01:00:00.822Z,61.19
2022-12-31T01:01:00.054Z,61.11
2022-12-31T01:02:00.110Z,57.33
2022-12-31T01:03:00.042Z,65.75
2022-12-31T01:03:59.964Z,58.52
2022-12-31T01:04:59.936Z,64.31
2022-12-31T01:05:59.920Z,54.43
2022-12-31T01:06:59.957Z,54.64
2022-12-31T01:07:59.903Z,58.44
2022-12-31T01:08:59.915Z,55.96
2022-12-31T01:09:59.923Z,60.60
2022-12-31T01:10:59.913Z,55.98
2022-12-31T01:11:59.892Z,60.22
2022-12-31T01:12:59.903Z,59.37
2022-12-31T01:13:59.966Z,61.46
2022-12-31T01:14:59.853Z,58.10
2022-12-31T01:15:59.896Z,56.44
2022-12-31T01:16:59.845Z,58.45
2022-12-31T01:17:59.835Z,61.29
2022-12-31T01:18:59.893Z,64.18
2022-12-31T01:19:59.840Z,60.22
2022-12-31T01:20:59.830Z,55.45
2022-12-31T01:21:59.844Z,56.30
2022-12-31T01:22:59.804Z,63.47
2022-12-31T01:23:59.828Z,55.21
2022-12-31T01:24:59.845Z,55.64
2022-12-31T01:25:59.784Z,56.52
2022-12-31T01:26:59.781Z,56.01
2022-12-31T01:27:59.806Z,59.33
2022-12-31T01:28:59.788Z,56.85
2022-12-31T01:29:59.764Z,62.63
2022-12-31T01:30:59.848Z,55.52
2022-12-31T01:31:59.748Z,65.24
2022-12-31T01:32:59.746Z,55.68
2022-12-31T01:33:59.776Z,55.80
2022-12-31T01:34:59.763Z,55.58
2022-12-31T01:35:59.770Z,56.35
2022-12-31T01:36:59.743Z,60.79
2022-12-31T01:37:59.713Z,58.16
2022-12-31T01:38:59.731Z,61.92
2022-12-31T01:39:59.734Z,55.50
2022-12-31T01:40:59.694Z,60.52
2022-12-31T01:41:59.682Z,56.95
2022-12-31T01:42:59.705Z,59.30
2022-12-31T01:44:00.244Z,54.73
2022-12-31T01:44:59.728Z,56.96
2022-12-31T01:45:59.831Z,56.73
2022-12-31T01:46:59.653Z,56.61
2022-12-31T01:47:59.643Z,56.61
2022-12-31T01:48:59.670Z,62.60
2022-12-31T01:49:59.643Z,63.74
2022-12-31T01:50:59.660Z,56.55
2022-12-31T01:51:59.639Z,60.59
2022-12-31T01:52:59.615Z,56.99
2022-12-31T01:53:59.619Z,53.43
2022-12-31T01:54:59.628Z,55.24
2022-12-31T01:55:59.615Z,55.90
2022-12-31T01:56:59.593Z,56.37
2022-12-31T01:57:59.620Z,56.56
2022-12-31T01:58:59.603Z,56.69
2022-12-31T01:59:59.578Z,60.87
2022-12-31T02:00:59.615Z,56.33
2022-12-31T02:01:59.732Z,56.20
2022-12-31T02:02:59.630Z,62.98
2022-12-31T02:03:59.570Z,55.32
2022-12-31T02:04:59.556Z,54.08
2022-12-31T02:05:59.558Z,61.63
2022-12-31T02:06:59.582Z,59.50
2022-12-31T02:07:59.520Z,56.66
2022-12-31T02:08:59.508Z,56.38
2022-12-31T02:09:59.541Z,56.36
2022-12-31T02:10:59.535Z,56.41
2022-12-31T02:11:59.500Z,58.94
2022-12-31T02:12:59.545Z,58.69
2022-12-31T02:13:59.502Z,57.79
2022-12-31T02:14:59.511Z,56.63
2022-12-31T02:15:59.545Z,63.25
2022-12-31T02:16:59.492Z,56.50
2022-12-31T02:18:00.518Z,62.19
2022-12-31T02:19:00.486Z,56.17
2022-12-31T02:19:59.455Z,56.09
2022-12-31T02:20:59.442Z,56.40
2022-12-31T02:21:59.484Z,56.50
2022-12-31T02:22:59.459Z,57.08
2022-12-31T02:23:59.444Z,60.57
2022-12-31T02:24:59.458Z,56.46
2022-12-31T02:25:59.410Z,60.26
2022-12-31T02:26:59.413Z,56.89
2022-12-31T02:27:59.442Z,60.22
2022-12-31T02:28:59.406Z,60.72
2022-12-31T02:29:59.419Z,56.21
2022-12-31T02:30:59.427Z,56.71
2022-12-31T02:31:59.413Z,56.82
2022-12-31T02:33:00.777Z,61.41
2022-12-31T02:33:59.404Z,56.62
2022-12-31T02:34:59.371Z,63.03
2022-12-31T02:35:59.367Z,59.63
2022-12-31T02:36:59.370Z,60.82
2022-12-31T02:37:59.353Z,53.77
2022-12-31T02:38:59.346Z,61.95
2022-12-31T02:39:59.350Z,56.25
2022-12-31T02:40:59.321Z,56.65
2022-12-31T02:41:59.318Z,59.62
2022-12-31T02:42:59.335Z,61.85
2022-12-31T02:43:59.310Z,56.69
2022-12-31T02:44:59.321Z,57.28
2022-12-31T02:45:59.309Z,56.83
2022-12-31T02:46:59.287Z,63.00
2022-12-31T02:47:59.279Z,60.11
2022-12-31T02:48:59.282Z,56.31
2022-12-31T02:49:59.284Z,56.47
2022-12-31T02:50:59.273Z,57.02
2022-12-31T02:51:59.278Z,56.70
2022-12-31T02:52:59.239Z,57.10
2022-12-31T02:53:59.231Z,57.95
2022-12-31T02:54:59.275Z,57.62
2022-12-31T02:55:59.742Z,61.61
2022-12-31T02:56:59.204Z,56.22
2022-12-31T02:57:59.244Z,57.30
2022-12-31T02:58:59.204Z,61.55
2022-12-31T02:59:59.213Z,59.23
2022-12-31T03:00:59.320Z,56.93
2022-12-31T03:01:59.408Z,57.43
2022-12-31T03:02:59.249Z,64.57
2022-12-31T03:03:59.196Z,59.36
2022-12-31T03:04:59.196Z,60.92
2022-12-31T03:05:59.163Z,56.92
2022-12-31T03:06:59.187Z,60.71
2022-12-31T03:07:59.151Z,56.62
2022-12-31T03:08:59.164Z,58.07
2022-12-31T03:09:59.158Z,56.64
2022-12-31T03:10:59.145Z,56.28
2022-12-31T03:11:59.148Z,56.44
2022-12-31T03:12:59.119Z,61.65
2022-12-31T03:13:59.115Z,55.45
2022-12-31T03:14:59.156Z,60.56
2022-12-31T03:15:59.130Z,59.08
2022-12-31T03:16:59.085Z,61.44
2022-12-31T03:17:59.167Z,57.35
2022-12-31T03:18:59.078Z,63.25
2022-12-31T03:19:59.131Z,64.35
2022-12-31T03:20:59.115Z,56.51
2022-12-31T03:21:59.161Z,55.27
2022-12-31T03:22:59.060Z,55.56
2022-12-31T03:23:59.076Z,60.03
2022-12-31T03:24:59.041Z,58.47
2022-12-31T03:25:59.052Z,60.90
2022-12-31T03:26:59.076Z,58.48
2022-12-31T03:27:59.021Z,62.33
2022-12-31T03:28:59.022Z,62.75
2022-12-31T03:29:59.031Z,55.69
2022-12-31T03:30:59.022Z,60.16
2022-12-31T03:31:58.994Z,56.81
2022-12-31T03:32:59.011Z,54.49
2022-12-31T03:33:58.986Z,53.44
2022-12-31T03:34:58.972Z,54.73
2022-12-31T03:35:58.993Z,61.08
2022-12-31T03:36:58.967Z,58.24
2022-12-31T03:37:58.961Z,54.57
2022-12-31T03:38:58.967Z,57.03
2022-12-31T03:39:58.957Z,54.96
2022-12-31T03:40:58.935Z,57.01
2022-12-31T03:41:58.962Z,52.97
2022-12-31T03:42:58.930Z,56.10
2022-12-31T03:43:58.912Z,59.40
2022-12-31T03:44:59.087Z,56.47
2022-12-31T03:45:58.959Z,55.89
2022-12-31T03:46:58.906Z,56.71
2022-12-31T03:47:58.910Z,56.04
2022-12-31T03:48:58.889Z,60.18
2022-12-31T03:49:58.879Z,60.17
2022-12-31T03:50:58.914Z,59.65
2022-12-31T03:51:58.864Z,60.09
2022-12-31T03:52:58.859Z,63.54
2022-12-31T03:53:58.872Z,57.55
2022-12-31T03:54:58.859Z,60.99
2022-12-31T03:55:58.851Z,57.27
2022-12-31T03:57:00.422Z,60.92
2022-12-31T03:57:59.828Z,65.08
2022-12-31T03:58:58.826Z,55.62
2022-12-31T03:59:58.846Z,52.64
2022-12-31T04:00:58.981Z,52.93
2022-12-31T04:01:58.901Z,52.74
2022-12-31T04:02:58.860Z,56.79
2022-12-31T04:03:58.788Z,65.02
2022-12-31T04:04:58.774Z,54.09
2022-12-31T04:05:58.816Z,55.17
2022-12-31T04:06:58.759Z,55.63
2022-12-31T04:07:58.791Z,57.85
2022-12-31T04:08:58.787Z,60.73
2022-12-31T04:09:58.794Z,64.36
2022-12-31T04:10:58.752Z,55.56
2022-12-31T04:11:58.771Z,58.25
2022-12-31T04:12:58.731Z,59.02
2022-12-31T04:13:58.716Z,59.70
2022-12-31T04:14:58.731Z,56.26
2022-12-31T04:15:58.763Z,55.92
2022-12-31T04:16:58.709Z,55.42
2022-12-31T04:17:58.720Z,56.10
2022-12-31T04:18:58.691Z,59.88
2022-12-31T04:19:58.687Z,54.21
2022-12-31T04:20:58.739Z,56.93
2022-12-31T04:21:58.675Z,70.77
2022-12-31T04:22:58.664Z,57.14
2022-12-31T04:23:58.688Z,59.77
2022-12-31T04:24:58.649Z,58.94
2022-12-31T04:25:58.671Z,62.26
2022-12-31T04:27:03.605Z,57.95
2022-12-31T04:28:00.642Z,55.07
2022-12-31T04:28:58.626Z,63.45
2022-12-31T04:29:58.650Z,56.78
2022-12-31T04:30:58.648Z,67.54
2022-12-31T04:31:58.666Z,61.45
2022-12-31T04:32:58.638Z,55.11
2022-12-31T04:33:58.608Z,62.57
2022-12-31T04:34:58.611Z,52.44
2022-12-31T04:35:58.631Z,60.00
2022-12-31T04:36:58.599Z,67.42
2022-12-31T04:37:58.583Z,54.47
2022-12-31T04:38:58.601Z,54.95
2022-12-31T04:40:05.143Z,59.74
2022-12-31T04:41:00.564Z,61.21
2022-12-31T04:41:58.655Z,56.94
2022-12-31T04:42:58.543Z,58.91
2022-12-31T04:43:58.553Z,60.96
2022-12-31T04:44:58.558Z,61.10
2022-12-31T04:45:58.564Z,55.91
2022-12-31T04:46:58.539Z,61.38
2022-12-31T04:47:58.537Z,61.60
2022-12-31T04:48:58.506Z,57.18
2022-12-31T04:49:58.518Z,58.22
2022-12-31T04:50:58.525Z,59.02
2022-12-31T04:51:58.485Z,62.49
2022-12-31T04:52:58.503Z,62.70
2022-12-31T04:53:58.525Z,58.95
2022-12-31T04:54:58.481Z,64.73
2022-12-31T04:55:58.463Z,59.83
2022-12-31T04:56:58.476Z,60.39
2022-12-31T04:57:58.478Z,58.17
2022-12-31T04:58:58.460Z,63.95
2022-12-31T04:59:58.463Z,53.97
2022-12-31T05:00:58.474Z,57.81
2022-12-31T05:01:58.630Z,51.60
2022-12-31T05:02:58.529Z,58.30
2022-12-31T05:03:58.417Z,57.42
2022-12-31T05:04:58.416Z,61.39
2022-12-31T05:05:58.432Z,68.04
2022-12-31T05:06:58.421Z,61.36
2022-12-31T05:07:58.433Z,56.88
2022-12-31T05:08:58.418Z,59.65
2022-12-31T05:09:58.385Z,52.41
2022-12-31T05:10:58.375Z,61.66
2022-12-31T05:11:58.409Z,56.26
2022-12-31T05:12:58.378Z,60.94
2022-12-31T05:13:58.384Z,58.82
2022-12-31T05:14:58.371Z,59.02
2022-12-31T05:15:58.341Z,57.49
2022-12-31T05:16:58.381Z,64.39
2022-12-31T05:17:58.364Z,62.68
2022-12-31T05:18:58.357Z,63.94
2022-12-31T05:19:58.325Z,57.55
2022-12-31T05:20:58.335Z,56.08
2022-12-31T05:21:58.313Z,62.75
2022-12-31T05:22:58.304Z,59.34
2022-12-31T05:23:58.325Z,61.53
2022-12-31T05:24:58.317Z,61.58
2022-12-31T05:25:58.276Z,57.62
2022-12-31T05:26:58.311Z,57.88
2022-12-31T05:27:58.279Z,55.58
2022-12-31T05:28:58.263Z,65.03
2022-12-31T05:29:58.288Z,61.51
2022-12-31T05:30:58.282Z,69.23
2022-12-31T05:31:58.246Z,58.93
2022-12-31T05:32:59.239Z,55.82
2022-12-31T05:33:58.243Z,55.72
2022-12-31T05:34:58.241Z,58.59
2022-12-31T05:35:58.240Z,67.78
2022-12-31T05:36:58.216Z,62.49
2022-12-31T05:37:58.212Z,55.15
2022-12-31T05:38:58.392Z,59.99
2022-12-31T05:39:58.223Z,61.29
2022-12-31T05:40:58.191Z,67.04
2022-12-31T05:41:58.204Z,67.33
2022-12-31T05:42:58.174Z,61.22
2022-12-31T05:43:58.167Z,58.19
2022-12-31T05:44:58.211Z,62.68
2022-12-31T05:45:58.203Z,65.77
2022-12-31T05:46:58.140Z,61.32
2022-12-31T05:47:59.184Z,55.49
2022-12-31T05:48:58.144Z,58.99
2022-12-31T05:49:58.132Z,63.97
2022-12-31T05:50:58.161Z,53.98
2022-12-31T05:51:58.120Z,65.28
2022-12-31T05:52:58.109Z,63.27
2022-12-31T05:53:58.130Z,63.73
2022-12-31T05:54:58.123Z,58.43
2022-12-31T05:55:58.077Z,59.28
2022-12-31T05:56:58.129Z,58.24
2022-12-31T05:57:58.080Z,61.41
2022-12-31T05:58:58.070Z,65.81
2022-12-31T05:59:58.109Z,61.54
2022-12-31T06:00:58.074Z,70.57
2022-12-31T06:01:58.053Z,60.40
2022-12-31T06:02:58.183Z,57.90
2022-12-31T06:03:58.122Z,65.16
2022-12-31T06:04:58.042Z,62.95
2022-12-31T06:05:58.079Z,65.43
2022-12-31T06:06:58.028Z,59.42
2022-12-31T06:07:58.024Z,60.99
2022-12-31T06:08:58.058Z,58.92
2022-12-31T06:09:58.009Z,68.52
2022-12-31T06:10:58.134Z,62.22
2022-12-31T06:11:58.023Z,60.27
2022-12-31T06:12:57.976Z,67.16
2022-12-31T06:13:57.978Z,62.50
2022-12-31T06:14:58.004Z,61.99
2022-12-31T06:15:57.994Z,54.79
2022-12-31T06:16:57.984Z,68.87
2022-12-31T06:17:57.982Z,65.27
2022-12-31T06:18:57.947Z,55.58
2022-12-31T06:19:57.940Z,62.52
2022-12-31T06:20:57.974Z,65.21
2022-12-31T06:21:57.924Z,55.43
2022-12-31T06:22:57.941Z,67.77
2022-12-31T06:23:57.942Z,61.66
2022-12-31T06:24:57.921Z,66.20
2022-12-31T06:25:57.916Z,72.26
2022-12-31T06:26:57.913Z,59.37
2022-12-31T06:27:57.891Z,64.59
2022-12-31T06:28:57.897Z,65.99
2022-12-31T06:29:57.897Z,66.35
2022-12-31T06:30:57.903Z,69.59
2022-12-31T06:31:57.894Z,63.46
2022-12-31T06:32:57.889Z,67.82
2022-12-31T06:33:57.878Z,66.21
2022-12-31T06:34:57.845Z,59.59
2022-12-31T06:35:57.865Z,63.07
2022-12-31T06:36:57.851Z,68.22
2022-12-31T06:37:57.838Z,62.86
2022-12-31T06:38:57.868Z,67.57
2022-12-31T06:39:57.831Z,65.44
2022-12-31T06:40:57.796Z,62.72
2022-12-31T06:41:58.833Z,61.67
2022-12-31T06:43:00.111Z,58.20
2022-12-31T06:43:58.791Z,63.69
2022-12-31T06:44:57.817Z,64.73
2022-12-31T06:45:57.789Z,61.09
2022-12-31T06:46:57.768Z,60.29
2022-12-31T06:47:57.795Z,66.86
2022-12-31T06:48:57.752Z,63.69
2022-12-31T06:49:57.791Z,65.27
2022-12-31T06:50:57.754Z,58.17
2022-12-31T06:51:57.740Z,67.93
2022-12-31T06:52:57.733Z,69.22
2022-12-31T06:53:57.761Z,63.45
2022-12-31T06:54:57.728Z,67.05
2022-12-31T06:55:57.712Z,61.59
2022-12-31T06:56:57.737Z,58.31
2022-12-31T06:57:57.706Z,66.72
2022-12-31T06:58:57.697Z,69.43
2022-12-31T06:59:57.759Z,67.26
2022-12-31T07:00:57.685Z,66.36
2022-12-31T07:01:57.802Z,59.35
2022-12-31T07:02:57.712Z,53.80
2022-12-31T07:03:57.663Z,59.47
2022-12-31T07:04:57.671Z,68.22
2022-12-31T07:05:57.681Z,65.05
2022-12-31T07:06:57.638Z,68.27
2022-12-31T07:07:57.644Z,69.45
2022-12-31T07:08:57.711Z,60.03
2022-12-31T07:09:57.654Z,64.24
2022-12-31T07:10:57.622Z,65.85
2022-12-31T07:11:57.656Z,66.89
2022-12-31T07:12:58.290Z,70.61
2022-12-31T07:14:00.504Z,67.35
2022-12-31T07:14:57.634Z,69.43
2022-12-31T07:15:57.631Z,67.41
2022-12-31T07:16:57.611Z,70.13
2022-12-31T07:17:57.580Z,69.37
2022-12-31T07:18:57.600Z,66.92
2022-12-31T07:19:58.086Z,66.47
2022-12-31T07:20:58.583Z,72.52
2022-12-31T07:21:57.585Z,64.45
2022-12-31T07:22:57.556Z,62.73
2022-12-31T07:23:57.561Z,70.10
2022-12-31T07:24:57.578Z,59.02
2022-12-31T07:25:57.544Z,65.32
2022-12-31T07:26:57.543Z,61.45
2022-12-31T07:27:57.526Z,64.88
2022-12-31T07:28:57.516Z,67.98
2022-12-31T07:29:57.506Z,64.94
2022-12-31T07:30:57.539Z,64.89
2022-12-31T07:31:57.503Z,70.26
2022-12-31T07:32:57.507Z,66.86
2022-12-31T07:33:57.503Z,68.71
2022-12-31T07:34:57.511Z,69.71
2022-12-31T07:35:57.472Z,63.11
2022-12-31T07:36:57.484Z,70.35
2022-12-31T07:37:57.438Z,69.06
2022-12-31T07:38:57.474Z,68.56
2022-12-31T07:39:57.453Z,65.99
2022-12-31T07:40:57.984Z,70.32
2022-12-31T07:41:58.443Z,63.84
2022-12-31T07:42:57.438Z,70.61
2022-12-31T07:43:57.404Z,67.87
2022-12-31T07:44:57.414Z,64.29
2022-12-31T07:45:57.432Z,68.27
2022-12-31T07:46:57.443Z,68.26
2022-12-31T07:48:02.234Z,66.66
2022-12-31T07:48:59.395Z,69.92
2022-12-31T07:49:57.375Z,67.21
2022-12-31T07:50:57.372Z,70.93
2022-12-31T07:51:57.362Z,66.99
2022-12-31T07:52:57.386Z,71.71
2022-12-31T07:53:57.374Z,70.28
2022-12-31T07:54:57.340Z,68.03
2022-12-31T07:55:57.330Z,69.50
2022-12-31T07:56:57.323Z,68.98
2022-12-31T07:57:57.315Z,67.85
2022-12-31T07:58:57.328Z,67.66
2022-12-31T07:59:57.320Z,67.81
2022-12-31T08:00:57.409Z,72.69
2022-12-31T08:01:57.391Z,66.92
2022-12-31T08:02:57.375Z,67.21
2022-12-31T08:03:57.299Z,68.19
2022-12-31T08:04:57.300Z,69.91
2022-12-31T08:05:57.371Z,71.27
2022-12-31T08:06:57.271Z,71.60
2022-12-31T08:07:58.309Z,69.03
2022-12-31T08:08:57.270Z,69.46
2022-12-31T08:09:57.257Z,69.14
2022-12-31T08:10:57.231Z,70.27
2022-12-31T08:11:58.229Z,71.57
2022-12-31T08:12:57.256Z,72.50
2022-12-31T08:13:57.223Z,64.99
2022-12-31T08:14:57.251Z,59.22
2022-12-31T08:15:57.243Z,70.59
2022-12-31T08:16:57.227Z,68.92
2022-12-31T08:17:57.187Z,63.77
2022-12-31T08:18:57.198Z,65.48
2022-12-31T08:19:57.187Z,68.39
2022-12-31T08:20:57.171Z,69.26
2022-12-31T08:21:57.160Z,70.01
2022-12-31T08:22:57.167Z,65.65
2022-12-31T08:23:57.157Z,68.30
2022-12-31T08:24:57.147Z,69.56
2022-12-31T08:25:57.125Z,69.25
2022-12-31T08:26:57.140Z,71.95
2022-12-31T08:27:57.150Z,70.91
2022-12-31T08:28:57.116Z,67.11
2022-12-31T08:29:57.113Z,74.67
2022-12-31T08:30:57.094Z,73.25
2022-12-31T08:31:57.172Z,67.82
2022-12-31T08:32:57.078Z,67.00
2022-12-31T08:34:00.678Z,69.04
2022-12-31T08:34:59.072Z,60.37
2022-12-31T08:35:57.064Z,68.22
2022-12-31T08:36:57.057Z,71.84
2022-12-31T08:37:57.081Z,73.07
2022-12-31T08:38:57.074Z,67.47
2022-12-31T08:39:57.085Z,69.42
2022-12-31T08:40:57.041Z,74.78
2022-12-31T08:41:57.048Z,73.02
2022-12-31T08:42:57.025Z,69.62
2022-12-31T08:43:57.052Z,75.13
2022-12-31T08:44:58.008Z,71.93
2022-12-31T08:45:57.053Z,72.42
2022-12-31T08:46:57.041Z,74.00
2022-12-31T08:48:00.112Z,66.78
2022-12-31T08:48:58.014Z,73.20
2022-12-31T08:49:56.966Z,73.74
2022-12-31T08:50:56.958Z,71.00
2022-12-31T08:51:56.981Z,69.39
2022-12-31T08:52:56.964Z,73.75
2022-12-31T08:53:56.946Z,72.22
2022-12-31T08:54:56.955Z,69.46
2022-12-31T08:55:56.929Z,74.40
2022-12-31T08:56:56.925Z,69.96
2022-12-31T08:57:56.918Z,71.15
2022-12-31T08:58:56.930Z,72.39
2022-12-31T08:59:56.943Z,69.49
2022-12-31T09:00:56.989Z,71.87
2022-12-31T09:01:56.990Z,70.44
2022-12-31T09:02:56.892Z,74.12
2022-12-31T09:03:56.923Z,74.61
2022-12-31T09:04:56.921Z,72.05
2022-12-31T09:05:56.875Z,72.50
2022-12-31T09:06:56.885Z,70.60
2022-12-31T09:07:56.855Z,70.61
2022-12-31T09:08:56.879Z,72.91
2022-12-31T09:09:56.853Z,66.68
2022-12-31T09:10:56.886Z,70.83
2022-12-31T09:11:56.829Z,70.27
2022-12-31T09:12:56.856Z,69.24
2022-12-31T09:13:56.897Z,74.29
2022-12-31T09:14:56.829Z,72.36
2022-12-31T09:15:56.820Z,68.35
2022-12-31T09:16:56.851Z,69.90
2022-12-31T09:17:56.782Z,72.00
2022-12-31T09:18:56.801Z,67.72
2022-12-31T09:19:56.761Z,71.05
2022-12-31T09:20:56.772Z,71.45
2022-12-31T09:21:56.799Z,74.52
2022-12-31T09:22:56.756Z,71.56
2022-12-31T09:23:56.757Z,71.38
2022-12-31T09:24:56.764Z,69.65
2022-12-31T09:25:56.725Z,75.83
2022-12-31T09:26:56.731Z,72.31
2022-12-31T09:27:56.805Z,71.75
2022-12-31T09:28:56.752Z,70.87
2022-12-31T09:29:56.735Z,74.21
2022-12-31T09:30:56.705Z,71.60
2022-12-31T09:31:56.861Z,68.81
2022-12-31T09:33:00.785Z,72.92
2022-12-31T09:33:57.666Z,69.32
2022-12-31T09:34:56.659Z,67.20
2022-12-31T09:35:56.667Z,71.85
2022-12-31T09:36:56.702Z,73.67
2022-12-31T09:37:56.716Z,71.54
2022-12-31T09:38:56.653Z,73.38
2022-12-31T09:39:56.653Z,73.62
2022-12-31T09:40:56.637Z,69.12
2022-12-31T09:41:56.616Z,65.46
2022-12-31T09:42:56.620Z,68.43
2022-12-31T09:44:00.934Z,71.38
2022-12-31T09:44:57.600Z,71.30
2022-12-31T09:45:56.738Z,72.05
2022-12-31T09:46:56.629Z,73.70
2022-12-31T09:47:56.605Z,73.41
2022-12-31T09:48:56.597Z,69.50
2022-12-31T09:49:56.582Z,70.79
2022-12-31T09:50:56.579Z,71.20
2022-12-31T09:51:56.553Z,73.24
2022-12-31T09:52:56.559Z,71.93
2022-12-31T09:53:56.548Z,72.66
2022-12-31T09:54:56.584Z,70.09
2022-12-31T09:55:56.559Z,68.14
2022-12-31T09:56:59.122Z,70.65
2022-12-31T09:57:57.543Z,73.87
2022-12-31T09:58:56.506Z,68.71
2022-12-31T09:59:56.522Z,72.08
2022-12-31T10:00:56.682Z,68.55
2022-12-31T10:01:56.698Z,73.44
2022-12-31T10:02:56.594Z,72.70
2022-12-31T10:03:56.490Z,73.76
2022-12-31T10:04:56.473Z,72.28
2022-12-31T10:05:56.460Z,69.93
2022-12-31T10:06:56.492Z,73.02
2022-12-31T10:07:56.465Z,72.82
2022-12-31T10:08:56.473Z,70.97
2022-12-31T10:09:56.441Z,69.80
2022-12-31T10:10:56.437Z,69.07
2022-12-31T10:11:56.404Z,68.47
2022-12-31T10:12:56.438Z,69.53
2022-12-31T10:13:56.431Z,72.93
2022-12-31T10:14:56.402Z,71.14
2022-12-31T10:15:56.418Z,73.54
2022-12-31T10:16:56.457Z,72.69
2022-12-31T10:17:56.355Z,71.37
2022-12-31T10:18:56.371Z,73.71
2022-12-31T10:19:56.411Z,67.24
2022-12-31T10:20:56.372Z,71.55
2022-12-31T10:21:56.382Z,71.12
2022-12-31T10:22:56.325Z,71.23
2022-12-31T10:23:56.340Z,74.04
2022-12-31T10:24:56.338Z,71.01
2022-12-31T10:25:56.331Z,72.28
2022-12-31T10:26:56.300Z,74.04
2022-12-31T10:27:56.348Z,73.91
2022-12-31T10:28:56.308Z,72.93
2022-12-31T10:29:56.325Z,70.56
2022-12-31T10:30:56.310Z,74.30
2022-12-31T10:31:56.283Z,73.51
2022-12-31T10:32:56.265Z,66.39
2022-12-31T10:33:56.260Z,73.27
2022-12-31T10:34:56.362Z,70.76
2022-12-31T10:35:56.252Z,70.48
2022-12-31T10:36:56.231Z,72.06
2022-12-31T10:37:56.241Z,72.19
2022-12-31T10:38:56.218Z,71.47
2022-12-31T10:39:56.213Z,69.96
2022-12-31T10:40:56.219Z,71.89
2022-12-31T10:41:56.227Z,71.33
2022-12-31T10:42:56.191Z,72.25
2022-12-31T10:43:56.212Z,74.53
2022-12-31T10:44:56.173Z,73.17
2022-12-31T10:45:56.225Z,70.34
2022-12-31T10:46:56.190Z,73.14
2022-12-31T10:47:56.170Z,72.25
2022-12-31T10:48:56.156Z,68.41
2022-12-31T10:49:56.161Z,68.39
2022-12-31T10:50:56.768Z,70.89
2022-12-31T10:51:56.143Z,73.89
2022-12-31T10:52:56.148Z,72.97
2022-12-31T10:53:56.146Z,71.66
2022-12-31T10:54:56.102Z,71.00
2022-12-31T10:55:56.128Z,71.90
2022-12-31T10:56:56.119Z,73.18
2022-12-31T10:58:00.303Z,69.90
2022-12-31T10:58:58.077Z,70.90
2022-12-31T10:59:56.094Z,72.85
2022-12-31T11:00:56.172Z,72.40
2022-12-31T11:01:56.206Z,73.10
2022-12-31T11:02:56.133Z,72.83
2022-12-31T11:03:56.064Z,71.83
2022-12-31T11:04:56.034Z,73.39
2022-12-31T11:05:56.044Z,70.34
2022-12-31T11:06:56.028Z,69.16
2022-12-31T11:07:56.041Z,71.09
2022-12-31T11:08:56.012Z,69.84
2022-12-31T11:09:56.020Z,74.39
2022-12-31T11:10:56.002Z,70.70
2022-12-31T11:11:56.018Z,69.18
2022-12-31T11:12:55.987Z,69.25
2022-12-31T11:13:56.773Z,71.87
2022-12-31T11:14:55.985Z,70.60
2022-12-31T11:15:56.017Z,67.81
2022-12-31T11:16:55.954Z,72.41
2022-12-31T11:17:55.962Z,67.93
2022-12-31T11:18:56.196Z,71.89
2022-12-31T11:19:55.948Z,68.99
2022-12-31T11:20:55.974Z,71.47
2022-12-31T11:21:55.938Z,69.60
2022-12-31T11:22:55.911Z,72.00
2022-12-31T11:23:55.906Z,70.52
2022-12-31T11:24:55.913Z,72.67
2022-12-31T11:25:55.916Z,70.76
2022-12-31T11:26:55.895Z,74.00
2022-12-31T11:27:55.897Z,70.46
2022-12-31T11:28:55.862Z,69.17
2022-12-31T11:29:55.869Z,71.81
2022-12-31T11:30:55.992Z,71.83
2022-12-31T11:31:55.857Z,69.97
2022-12-31T11:32:55.850Z,71.42
2022-12-31T11:33:55.868Z,69.09
2022-12-31T11:34:55.835Z,72.22
2022-12-31T11:35:55.842Z,72.72
2022-12-31T11:36:55.831Z,69.57
2022-12-31T11:37:55.841Z,71.89
2022-12-31T11:38:55.813Z,75.24
2022-12-31T11:39:55.807Z,73.07
2022-12-31T11:40:55.812Z,69.57
2022-12-31T11:41:55.806Z,74.15
2022-12-31T11:42:56.806Z,71.29
2022-12-31T11:43:55.781Z,72.98
2022-12-31T11:44:55.779Z,71.73
2022-12-31T11:45:55.765Z,71.03
2022-12-31T11:46:55.761Z,70.20
2022-12-31T11:48:29.086Z,73.20
2022-12-31T11:48:57.759Z,69.69
2022-12-31T11:49:55.732Z,70.43
2022-12-31T11:50:55.734Z,69.99
2022-12-31T11:51:55.775Z,69.15
2022-12-31T11:52:55.713Z,72.78
2022-12-31T11:53:55.720Z,71.57
2022-12-31T11:54:55.706Z,70.75
2022-12-31T11:55:55.687Z,73.09
2022-12-31T11:56:56.720Z,69.73
2022-12-31T11:57:55.681Z,69.43
2022-12-31T11:58:55.688Z,73.55
2022-12-31T11:59:55.684Z,71.92
2022-12-31T12:00:55.680Z,72.02
2022-12-31T12:01:55.661Z,72.27
2022-12-31T12:02:55.686Z,66.84
2022-12-31T12:03:55.694Z,69.51
2022-12-31T12:04:57.318Z,73.04
2022-12-31T12:05:55.654Z,69.39
2022-12-31T12:06:55.653Z,67.90
2022-12-31T12:07:55.649Z,72.44
2022-12-31T12:08:55.616Z,70.73
2022-12-31T12:09:55.605Z,65.59
2022-12-31T12:10:55.624Z,69.99
2022-12-31T12:11:55.600Z,68.50
2022-12-31T12:12:55.596Z,68.09
2022-12-31T12:13:55.571Z,70.95
2022-12-31T12:14:55.592Z,72.38
2022-12-31T12:15:55.663Z,68.78
2022-12-31T12:17:02.418Z,67.92
2022-12-31T12:17:57.593Z,68.31
2022-12-31T12:18:55.664Z,70.75
2022-12-31T12:19:55.631Z,71.29
2022-12-31T12:20:55.548Z,66.90
2022-12-31T12:21:55.538Z,70.18
2022-12-31T12:22:55.564Z,68.36
2022-12-31T12:23:55.529Z,70.45
2022-12-31T12:24:55.531Z,70.42
2022-12-31T12:25:55.508Z,72.35
2022-12-31T12:26:55.522Z,66.42
2022-12-31T12:27:55.499Z,71.20
2022-12-31T12:28:55.490Z,68.85
2022-12-31T12:29:55.515Z,70.01
2022-12-31T12:30:55.476Z,68.78
2022-12-31T12:31:55.476Z,71.31
2022-12-31T12:32:55.486Z,72.74
2022-12-31T12:33:55.471Z,68.08
2022-12-31T12:34:55.455Z,68.34
2022-12-31T12:35:55.532Z,71.31
2022-12-31T12:36:55.444Z,72.96
2022-12-31T12:37:55.472Z,71.19
2022-12-31T12:38:55.415Z,71.09
2022-12-31T12:39:55.486Z,69.99
2022-12-31T12:40:55.422Z,70.46
2022-12-31T12:41:55.413Z,68.97
2022-12-31T12:42:55.455Z,69.50
2022-12-31T12:43:55.462Z,65.57
2022-12-31T12:44:55.399Z,66.49
2022-12-31T12:45:55.404Z,66.03
2022-12-31T12:46:55.393Z,64.41
2022-12-31T12:47:55.370Z,67.82
2022-12-31T12:48:55.366Z,68.05
2022-12-31T12:49:55.416Z,63.20
2022-12-31T12:50:55.394Z,68.31
2022-12-31T12:51:55.384Z,68.79